sensor_id;sensor_type;location;lat;lon;timestamp;P1;durP1;ratioP1;P2;durP2;ratioP2
11098;SDS011;12223;42.650;23.364;2023-02-01T00:02:12;22.13;;;20.83;;
11098;SDS011;12223;42.650;23.364;2023-02-01T00:04:39;12.90;;;11.70;;
11098;SDS011;12223;42.650;23.364;2023-02-01T00:07:06;10.43;;;9.27;;
11098;SDS011;12223;42.650;23.364;2023-02-01T00:09:33;9.23;;;8.43;;
11098;SDS011;12223;42.650;23.364;2023-02-01T00:11:59;11.40;;;10.60;;
11098;SDS011;12223;42.650;23.364;2023-02-01T00:14:28;17.10;;;16.07;;
11098;SDS011;12223;42.650;23.364;2023-02-01T00:16:56;14.03;;;13.03;;
11098;SDS011;12223;42.650;23.364;2023-02-01T00:19:22;9.17;;;8.27;;
11098;SDS011;12223;42.650;23.364;2023-02-01T00:21:49;9.17;;;8.27;;
11098;SDS011;12223;42.650;23.364;2023-02-01T00:24:16;12.90;;;12.10;;
11098;SDS011;12223;42.650;23.364;2023-02-01T00:26:44;11.93;;;11.03;;
11098;SDS011;12223;42.650;23.364;2023-02-01T00:29:12;8.50;;;7.77;;
11098;SDS011;12223;42.650;23.364;2023-02-01T00:31:41;9.50;;;8.60;;
11098;SDS011;12223;42.650;23.364;2023-02-01T00:34:10;9.63;;;8.73;;
11098;SDS011;12223;42.650;23.364;2023-02-01T00:36:39;10.43;;;9.37;;
11098;SDS011;12223;42.650;23.364;2023-02-01T00:39:06;12.23;;;11.03;;
11098;SDS011;12223;42.650;23.364;2023-02-01T00:41:32;13.87;;;12.83;;
11098;SDS011;12223;42.650;23.364;2023-02-01T00:43:59;10.70;;;9.80;;
11098;SDS011;12223;42.650;23.364;2023-02-01T00:46:27;9.77;;;9.13;;
11098;SDS011;12223;42.650;23.364;2023-02-01T00:48:54;10.87;;;10.17;;
11098;SDS011;12223;42.650;23.364;2023-02-01T00:51:23;9.33;;;8.63;;
11098;SDS011;12223;42.650;23.364;2023-02-01T00:53:54;8.63;;;7.27;;
11098;SDS011;12223;42.650;23.364;2023-02-01T00:56:21;7.93;;;7.23;;
11098;SDS011;12223;42.650;23.364;2023-02-01T00:58:48;7.70;;;7.10;;
11098;SDS011;12223;42.650;23.364;2023-02-01T01:01:16;7.60;;;6.97;;
11098;SDS011;12223;42.650;23.364;2023-02-01T01:03:45;8.30;;;7.70;;
11098;SDS011;12223;42.650;23.364;2023-02-01T01:06:14;7.43;;;6.83;;
11098;SDS011;12223;42.650;23.364;2023-02-01T01:08:44;7.87;;;7.17;;
11098;SDS011;12223;42.650;23.364;2023-02-01T01:11:11;9.10;;;8.30;;
11098;SDS011;12223;42.650;23.364;2023-02-01T01:13:41;10.80;;;9.83;;
11098;SDS011;12223;42.650;23.364;2023-02-01T01:16:08;13.07;;;11.63;;
11098;SDS011;12223;42.650;23.364;2023-02-01T01:18:36;12.10;;;10.90;;
11098;SDS011;12223;42.650;23.364;2023-02-01T01:21:03;10.60;;;9.67;;
11098;SDS011;12223;42.650;23.364;2023-02-01T01:23:31;10.97;;;7.73;;
11098;SDS011;12223;42.650;23.364;2023-02-01T01:26:00;8.67;;;7.93;;
11098;SDS011;12223;42.650;23.364;2023-02-01T01:28:27;7.80;;;7.17;;
11098;SDS011;12223;42.650;23.364;2023-02-01T01:30:53;8.00;;;7.33;;
11098;SDS011;12223;42.650;23.364;2023-02-01T01:33:20;8.73;;;8.03;;
11098;SDS011;12223;42.650;23.364;2023-02-01T01:35:47;10.50;;;9.70;;
11098;SDS011;12223;42.650;23.364;2023-02-01T01:38:14;10.07;;;9.37;;
11098;SDS011;12223;42.650;23.364;2023-02-01T01:40:44;8.57;;;7.90;;
11098;SDS011;12223;42.650;23.364;2023-02-01T01:43:16;8.47;;;7.70;;
11098;SDS011;12223;42.650;23.364;2023-02-01T01:45:47;13.97;;;13.13;;
11098;SDS011;12223;42.650;23.364;2023-02-01T01:48:16;15.83;;;14.73;;
11098;SDS011;12223;42.650;23.364;2023-02-01T01:50:48;13.17;;;12.27;;
11098;SDS011;12223;42.650;23.364;2023-02-01T01:53:19;10.57;;;9.57;;
11098;SDS011;12223;42.650;23.364;2023-02-01T01:55:49;9.43;;;8.53;;
11098;SDS011;12223;42.650;23.364;2023-02-01T01:58:19;9.87;;;8.80;;
11098;SDS011;12223;42.650;23.364;2023-02-01T02:00:51;13.47;;;9.60;;
11098;SDS011;12223;42.650;23.364;2023-02-01T02:03:19;11.37;;;10.27;;
11098;SDS011;12223;42.650;23.364;2023-02-01T02:05:50;10.47;;;9.47;;
11098;SDS011;12223;42.650;23.364;2023-02-01T02:08:20;10.57;;;9.23;;
11098;SDS011;12223;42.650;23.364;2023-02-01T02:10:50;8.87;;;8.03;;
11098;SDS011;12223;42.650;23.364;2023-02-01T02:13:27;9.80;;;8.90;;
11098;SDS011;12223;42.650;23.364;2023-02-01T02:16:04;9.90;;;8.93;;
11098;SDS011;12223;42.650;23.364;2023-02-01T02:18:43;12.67;;;11.37;;
11098;SDS011;12223;42.650;23.364;2023-02-01T02:21:17;11.67;;;10.27;;
11098;SDS011;12223;42.650;23.364;2023-02-01T02:27:04;9.43;;;7.23;;
11098;SDS011;12223;42.650;23.364;2023-02-01T02:29:54;8.47;;;7.67;;
11098;SDS011;12223;42.650;23.364;2023-02-01T02:32:47;11.83;;;10.70;;
11098;SDS011;12223;42.650;23.364;2023-02-01T02:35:36;8.23;;;6.80;;
11098;SDS011;12223;42.650;23.364;2023-02-01T02:38:11;9.03;;;8.33;;
11098;SDS011;12223;42.650;23.364;2023-02-01T02:40:45;8.97;;;8.17;;
11098;SDS011;12223;42.650;23.364;2023-02-01T02:43:18;9.37;;;8.60;;
11098;SDS011;12223;42.650;23.364;2023-02-01T02:46:07;9.23;;;8.60;;
11098;SDS011;12223;42.650;23.364;2023-02-01T02:48:55;8.70;;;7.97;;
11098;SDS011;12223;42.650;23.364;2023-02-01T02:51:30;7.93;;;7.33;;
11098;SDS011;12223;42.650;23.364;2023-02-01T02:54:18;11.63;;;10.47;;
11098;SDS011;12223;42.650;23.364;2023-02-01T02:57:07;10.30;;;9.40;;
11098;SDS011;12223;42.650;23.364;2023-02-01T02:59:54;10.67;;;9.67;;
11098;SDS011;12223;42.650;23.364;2023-02-01T03:02:41;8.90;;;8.20;;
11098;SDS011;12223;42.650;23.364;2023-02-01T03:05:31;7.87;;;7.23;;
11098;SDS011;12223;42.650;23.364;2023-02-01T03:08:04;9.10;;;8.30;;
11098;SDS011;12223;42.650;23.364;2023-02-01T03:10:40;7.60;;;7.00;;
11098;SDS011;12223;42.650;23.364;2023-02-01T03:13:11;8.33;;;7.73;;
11098;SDS011;12223;42.650;23.364;2023-02-01T03:15:42;8.07;;;7.37;;
11098;SDS011;12223;42.650;23.364;2023-02-01T03:18:16;6.80;;;6.30;;
11098;SDS011;12223;42.650;23.364;2023-02-01T03:20:49;7.20;;;6.50;;
11098;SDS011;12223;42.650;23.364;2023-02-01T03:23:21;13.33;;;12.43;;
11098;SDS011;12223;42.650;23.364;2023-02-01T03:25:52;8.67;;;7.80;;
11098;SDS011;12223;42.650;23.364;2023-02-01T03:28:22;7.47;;;6.87;;
11098;SDS011;12223;42.650;23.364;2023-02-01T03:30:52;7.27;;;6.67;;
11098;SDS011;12223;42.650;23.364;2023-02-01T03:33:20;9.60;;;7.07;;
11098;SDS011;12223;42.650;23.364;2023-02-01T03:35:50;6.40;;;5.93;;
11098;SDS011;12223;42.650;23.364;2023-02-01T03:38:25;7.63;;;6.93;;
11098;SDS011;12223;42.650;23.364;2023-02-01T03:40:57;6.43;;;5.93;;
11098;SDS011;12223;42.650;23.364;2023-02-01T03:43:30;7.50;;;6.90;;
11098;SDS011;12223;42.650;23.364;2023-02-01T03:46:05;10.50;;;6.43;;
11098;SDS011;12223;42.650;23.364;2023-02-01T03:48:38;7.57;;;6.77;;
11098;SDS011;12223;42.650;23.364;2023-02-01T03:51:06;10.33;;;9.67;;
11098;SDS011;12223;42.650;23.364;2023-02-01T03:53:36;6.93;;;6.23;;
11098;SDS011;12223;42.650;23.364;2023-02-01T03:58:44;8.03;;;7.43;;
11098;SDS011;12223;42.650;23.364;2023-02-01T04:01:23;8.70;;;7.90;;
11098;SDS011;12223;42.650;23.364;2023-02-01T04:03:51;10.57;;;9.77;;
11098;SDS011;12223;42.650;23.364;2023-02-01T04:06:18;12.03;;;11.23;;
11098;SDS011;12223;42.650;23.364;2023-02-01T04:08:46;16.23;;;15.37;;
11098;SDS011;12223;42.650;23.364;2023-02-01T04:11:13;12.10;;;11.40;;
11098;SDS011;12223;42.650;23.364;2023-02-01T04:13:39;12.63;;;11.50;;
11098;SDS011;12223;42.650;23.364;2023-02-01T04:16:06;15.17;;;13.97;;
11098;SDS011;12223;42.650;23.364;2023-02-01T04:18:33;14.43;;;13.33;;
11098;SDS011;12223;42.650;23.364;2023-02-01T04:21:00;12.23;;;11.13;;
11098;SDS011;12223;42.650;23.364;2023-02-01T04:23:27;9.57;;;8.60;;
11098;SDS011;12223;42.650;23.364;2023-02-01T04:25:55;12.43;;;11.43;;
11098;SDS011;12223;42.650;23.364;2023-02-01T04:28:25;9.57;;;8.87;;
11098;SDS011;12223;42.650;23.364;2023-02-01T04:30:52;9.53;;;8.83;;
11098;SDS011;12223;42.650;23.364;2023-02-01T04:33:19;7.70;;;7.10;;
11098;SDS011;12223;42.650;23.364;2023-02-01T04:35:45;9.17;;;8.37;;
11098;SDS011;12223;42.650;23.364;2023-02-01T04:38:13;7.67;;;7.00;;
11098;SDS011;12223;42.650;23.364;2023-02-01T04:40:39;8.33;;;7.63;;
11098;SDS011;12223;42.650;23.364;2023-02-01T04:43:08;10.73;;;8.17;;
11098;SDS011;12223;42.650;23.364;2023-02-01T04:45:35;10.50;;;7.97;;
11098;SDS011;12223;42.650;23.364;2023-02-01T04:48:02;11.33;;;9.00;;
11098;SDS011;12223;42.650;23.364;2023-02-01T04:50:29;13.40;;;9.93;;
11098;SDS011;12223;42.650;23.364;2023-02-01T04:52:55;9.70;;;8.70;;
11098;SDS011;12223;42.650;23.364;2023-02-01T04:55:22;9.87;;;8.97;;
11098;SDS011;12223;42.650;23.364;2023-02-01T04:57:49;7.80;;;7.10;;
11098;SDS011;12223;42.650;23.364;2023-02-01T05:00:17;8.17;;;7.47;;
11098;SDS011;12223;42.650;23.364;2023-02-01T05:02:44;11.70;;;10.53;;
11098;SDS011;12223;42.650;23.364;2023-02-01T05:05:11;12.43;;;11.53;;
11098;SDS011;12223;42.650;23.364;2023-02-01T05:07:38;12.83;;;11.90;;
11098;SDS011;12223;42.650;23.364;2023-02-01T05:10:05;12.17;;;10.53;;
11098;SDS011;12223;42.650;23.364;2023-02-01T05:12:32;10.10;;;9.10;;
11098;SDS011;12223;42.650;23.364;2023-02-01T05:15:18;8.47;;;7.67;;
11098;SDS011;12223;42.650;23.364;2023-02-01T05:17:45;11.73;;;10.90;;
11098;SDS011;12223;42.650;23.364;2023-02-01T05:20:12;9.90;;;9.17;;
11098;SDS011;12223;42.650;23.364;2023-02-01T05:22:38;8.83;;;8.10;;
11098;SDS011;12223;42.650;23.364;2023-02-01T05:25:07;13.63;;;12.63;;
11098;SDS011;12223;42.650;23.364;2023-02-01T05:27:34;13.97;;;12.63;;
11098;SDS011;12223;42.650;23.364;2023-02-01T05:30:02;13.63;;;12.40;;
11098;SDS011;12223;42.650;23.364;2023-02-01T05:32:30;10.93;;;9.93;;
11098;SDS011;12223;42.650;23.364;2023-02-01T05:34:57;14.10;;;12.80;;
11098;SDS011;12223;42.650;23.364;2023-02-01T05:37:24;11.03;;;10.17;;
11098;SDS011;12223;42.650;23.364;2023-02-01T05:39:51;9.23;;;8.53;;
11098;SDS011;12223;42.650;23.364;2023-02-01T05:42:18;11.50;;;10.43;;
11098;SDS011;12223;42.650;23.364;2023-02-01T05:44:45;12.53;;;11.50;;
11098;SDS011;12223;42.650;23.364;2023-02-01T05:47:12;10.03;;;9.23;;
11098;SDS011;12223;42.650;23.364;2023-02-01T05:49:40;13.17;;;10.10;;
11098;SDS011;12223;42.650;23.364;2023-02-01T05:52:06;10.40;;;9.63;;
11098;SDS011;12223;42.650;23.364;2023-02-01T05:54:35;11.50;;;10.70;;
11098;SDS011;12223;42.650;23.364;2023-02-01T05:57:01;13.10;;;11.87;;
11098;SDS011;12223;42.650;23.364;2023-02-01T05:59:28;11.83;;;10.70;;
11098;SDS011;12223;42.650;23.364;2023-02-01T06:01:55;16.27;;;12.30;;
11098;SDS011;12223;42.650;23.364;2023-02-01T06:04:22;12.10;;;10.50;;
11098;SDS011;12223;42.650;23.364;2023-02-01T06:06:50;12.00;;;10.40;;
11098;SDS011;12223;42.650;23.364;2023-02-01T06:09:17;8.70;;;8.00;;
11098;SDS011;12223;42.650;23.364;2023-02-01T06:11:44;12.27;;;11.17;;
11098;SDS011;12223;42.650;23.364;2023-02-01T06:14:11;12.63;;;11.73;;
11098;SDS011;12223;42.650;23.364;2023-02-01T06:16:40;13.23;;;12.27;;
11098;SDS011;12223;42.650;23.364;2023-02-01T06:19:07;11.87;;;10.97;;
11098;SDS011;12223;42.650;23.364;2023-02-01T06:21:34;14.20;;;9.03;;
11098;SDS011;12223;42.650;23.364;2023-02-01T06:24:03;12.90;;;12.00;;
11098;SDS011;12223;42.650;23.364;2023-02-01T06:26:31;13.43;;;10.43;;
11098;SDS011;12223;42.650;23.364;2023-02-01T06:28:58;10.03;;;8.67;;
11098;SDS011;12223;42.650;23.364;2023-02-01T06:31:25;13.83;;;12.73;;
11098;SDS011;12223;42.650;23.364;2023-02-01T06:33:52;17.17;;;15.70;;
11098;SDS011;12223;42.650;23.364;2023-02-01T06:36:19;14.43;;;11.23;;
11098;SDS011;12223;42.650;23.364;2023-02-01T06:38:47;12.50;;;10.07;;
11098;SDS011;12223;42.650;23.364;2023-02-01T06:41:15;15.97;;;14.43;;
11098;SDS011;12223;42.650;23.364;2023-02-01T06:43:42;10.53;;;9.60;;
11098;SDS011;12223;42.650;23.364;2023-02-01T06:46:11;11.37;;;10.27;;
11098;SDS011;12223;42.650;23.364;2023-02-01T06:48:39;10.80;;;10.00;;
11098;SDS011;12223;42.650;23.364;2023-02-01T06:51:06;10.60;;;9.60;;
11098;SDS011;12223;42.650;23.364;2023-02-01T06:53:44;7.57;;;6.97;;
11098;SDS011;12223;42.650;23.364;2023-02-01T06:56:10;8.47;;;7.70;;
11098;SDS011;12223;42.650;23.364;2023-02-01T06:58:39;9.10;;;8.20;;
11098;SDS011;12223;42.650;23.364;2023-02-01T07:01:06;11.27;;;8.77;;
11098;SDS011;12223;42.650;23.364;2023-02-01T07:03:35;12.33;;;8.70;;
11098;SDS011;12223;42.650;23.364;2023-02-01T07:06:02;8.60;;;7.90;;
11098;SDS011;12223;42.650;23.364;2023-02-01T07:08:31;10.53;;;9.13;;
11098;SDS011;12223;42.650;23.364;2023-02-01T07:11:01;12.60;;;9.33;;
11098;SDS011;12223;42.650;23.364;2023-02-01T07:13:28;13.17;;;10.00;;
11098;SDS011;12223;42.650;23.364;2023-02-01T07:15:59;10.10;;;9.00;;
11098;SDS011;12223;42.650;23.364;2023-02-01T07:18:29;9.97;;;8.90;;
11098;SDS011;12223;42.650;23.364;2023-02-01T07:20:57;9.03;;;7.97;;
11098;SDS011;12223;42.650;23.364;2023-02-01T07:23:24;9.63;;;7.43;;
11098;SDS011;12223;42.650;23.364;2023-02-01T07:25:53;7.57;;;6.77;;
11098;SDS011;12223;42.650;23.364;2023-02-01T07:28:21;8.77;;;7.23;;
11098;SDS011;12223;42.650;23.364;2023-02-01T07:30:48;10.50;;;7.30;;
11098;SDS011;12223;42.650;23.364;2023-02-01T07:33:19;7.80;;;6.70;;
11098;SDS011;12223;42.650;23.364;2023-02-01T07:35:46;7.47;;;6.77;;
11098;SDS011;12223;42.650;23.364;2023-02-01T07:38:15;9.10;;;7.23;;
11098;SDS011;12223;42.650;23.364;2023-02-01T07:40:42;8.63;;;7.77;;
11098;SDS011;12223;42.650;23.364;2023-02-01T07:43:10;8.73;;;7.93;;
11098;SDS011;12223;42.650;23.364;2023-02-01T07:45:36;7.33;;;6.63;;
11098;SDS011;12223;42.650;23.364;2023-02-01T07:48:06;9.90;;;8.93;;
11098;SDS011;12223;42.650;23.364;2023-02-01T07:50:34;9.10;;;7.97;;
11098;SDS011;12223;42.650;23.364;2023-02-01T07:53:01;11.07;;;9.93;;
11098;SDS011;12223;42.650;23.364;2023-02-01T07:55:28;10.23;;;9.17;;
11098;SDS011;12223;42.650;23.364;2023-02-01T07:57:56;8.20;;;7.43;;
11098;SDS011;12223;42.650;23.364;2023-02-01T08:00:23;7.70;;;7.10;;
11098;SDS011;12223;42.650;23.364;2023-02-01T08:03:08;11.60;;;10.50;;
11098;SDS011;12223;42.650;23.364;2023-02-01T08:05:38;9.37;;;8.67;;
11098;SDS011;12223;42.650;23.364;2023-02-01T08:08:06;8.67;;;7.97;;
11098;SDS011;12223;42.650;23.364;2023-02-01T08:10:33;9.80;;;8.70;;
11098;SDS011;12223;42.650;23.364;2023-02-01T08:13:00;7.70;;;7.03;;
11098;SDS011;12223;42.650;23.364;2023-02-01T08:15:28;12.33;;;7.17;;
11098;SDS011;12223;42.650;23.364;2023-02-01T08:17:55;9.20;;;8.27;;
11098;SDS011;12223;42.650;23.364;2023-02-01T08:20:24;9.87;;;8.87;;
11098;SDS011;12223;42.650;23.364;2023-02-01T08:22:55;8.57;;;7.87;;
11098;SDS011;12223;42.650;23.364;2023-02-01T08:25:23;10.17;;;8.17;;
11098;SDS011;12223;42.650;23.364;2023-02-01T08:27:51;9.00;;;7.07;;
11098;SDS011;12223;42.650;23.364;2023-02-01T08:30:18;8.53;;;7.23;;
11098;SDS011;12223;42.650;23.364;2023-02-01T08:32:45;8.17;;;7.37;;
11098;SDS011;12223;42.650;23.364;2023-02-01T08:35:12;9.27;;;8.43;;
11098;SDS011;12223;42.650;23.364;2023-02-01T08:37:39;10.13;;;8.73;;
11098;SDS011;12223;42.650;23.364;2023-02-01T08:40:08;9.20;;;8.30;;
11098;SDS011;12223;42.650;23.364;2023-02-01T08:42:35;10.97;;;7.77;;
11098;SDS011;12223;42.650;23.364;2023-02-01T08:45:17;10.97;;;9.17;;
11098;SDS011;12223;42.650;23.364;2023-02-01T08:47:44;8.83;;;8.13;;
11098;SDS011;12223;42.650;23.364;2023-02-01T08:50:12;9.50;;;7.97;;
11098;SDS011;12223;42.650;23.364;2023-02-01T08:52:39;8.30;;;7.47;;
11098;SDS011;12223;42.650;23.364;2023-02-01T08:55:08;12.43;;;8.80;;
11098;SDS011;12223;42.650;23.364;2023-02-01T08:57:35;8.60;;;7.87;;
11098;SDS011;12223;42.650;23.364;2023-02-01T09:00:03;10.33;;;7.37;;
11098;SDS011;12223;42.650;23.364;2023-02-01T09:02:31;6.67;;;6.10;;
11098;SDS011;12223;42.650;23.364;2023-02-01T09:04:57;9.33;;;8.47;;
11098;SDS011;12223;42.650;23.364;2023-02-01T09:07:24;7.97;;;7.00;;
11098;SDS011;12223;42.650;23.364;2023-02-01T09:09:51;8.00;;;7.30;;
11098;SDS011;12223;42.650;23.364;2023-02-01T09:12:21;8.80;;;8.10;;
11098;SDS011;12223;42.650;23.364;2023-02-01T09:14:47;9.77;;;8.80;;
11098;SDS011;12223;42.650;23.364;2023-02-01T09:17:14;12.10;;;9.17;;
11098;SDS011;12223;42.650;23.364;2023-02-01T09:19:41;8.67;;;7.97;;
11098;SDS011;12223;42.650;23.364;2023-02-01T09:22:08;9.73;;;8.03;;
11098;SDS011;12223;42.650;23.364;2023-02-01T09:24:35;6.20;;;5.80;;
11098;SDS011;12223;42.650;23.364;2023-02-01T09:27:01;7.30;;;6.57;;
11098;SDS011;12223;42.650;23.364;2023-02-01T09:29:29;7.23;;;6.57;;
11098;SDS011;12223;42.650;23.364;2023-02-01T09:31:56;7.10;;;6.37;;
11098;SDS011;12223;42.650;23.364;2023-02-01T09:34:23;7.33;;;6.73;;
11098;SDS011;12223;42.650;23.364;2023-02-01T09:36:50;7.73;;;6.97;;
11098;SDS011;12223;42.650;23.364;2023-02-01T09:39:17;7.47;;;6.80;;
11098;SDS011;12223;42.650;23.364;2023-02-01T09:41:47;7.33;;;6.80;;
11098;SDS011;12223;42.650;23.364;2023-02-01T09:44:27;11.60;;;10.70;;
11098;SDS011;12223;42.650;23.364;2023-02-01T09:47:09;8.13;;;7.43;;
11098;SDS011;12223;42.650;23.364;2023-02-01T09:49:39;8.07;;;7.50;;
11098;SDS011;12223;42.650;23.364;2023-02-01T09:52:15;9.07;;;7.57;;
11098;SDS011;12223;42.650;23.364;2023-02-01T09:54:47;8.10;;;7.47;;
11098;SDS011;12223;42.650;23.364;2023-02-01T09:57:23;9.60;;;7.63;;
11098;SDS011;12223;42.650;23.364;2023-02-01T09:59:56;8.03;;;7.53;;
11098;SDS011;12223;42.650;23.364;2023-02-01T10:02:30;11.07;;;10.03;;
11098;SDS011;12223;42.650;23.364;2023-02-01T10:05:02;6.93;;;6.20;;
11098;SDS011;12223;42.650;23.364;2023-02-01T10:07:32;6.77;;;6.27;;
11098;SDS011;12223;42.650;23.364;2023-02-01T10:10:08;8.67;;;6.40;;
11098;SDS011;12223;42.650;23.364;2023-02-01T10:12:45;8.23;;;7.37;;
11098;SDS011;12223;42.650;23.364;2023-02-01T10:15:40;7.63;;;6.97;;
11098;SDS011;12223;42.650;23.364;2023-02-01T10:18:23;9.10;;;6.83;;
11098;SDS011;12223;42.650;23.364;2023-02-01T10:21:05;8.07;;;7.40;;
11098;SDS011;12223;42.650;23.364;2023-02-01T10:23:49;11.30;;;7.90;;
11098;SDS011;12223;42.650;23.364;2023-02-01T10:26:29;16.00;;;7.40;;
11098;SDS011;12223;42.650;23.364;2023-02-01T10:29:00;6.53;;;6.00;;
11098;SDS011;12223;42.650;23.364;2023-02-01T10:31:35;6.97;;;6.37;;
11098;SDS011;12223;42.650;23.364;2023-02-01T10:34:07;7.00;;;6.43;;
11098;SDS011;12223;42.650;23.364;2023-02-01T10:36:48;9.00;;;6.30;;
11098;SDS011;12223;42.650;23.364;2023-02-01T10:39:19;7.07;;;5.90;;
11098;SDS011;12223;42.650;23.364;2023-02-01T10:41:49;7.90;;;7.10;;
11098;SDS011;12223;42.650;23.364;2023-02-01T10:44:16;8.63;;;7.83;;
11098;SDS011;12223;42.650;23.364;2023-02-01T10:46:51;7.00;;;6.43;;
11098;SDS011;12223;42.650;23.364;2023-02-01T10:49:20;8.07;;;7.37;;
11098;SDS011;12223;42.650;23.364;2023-02-01T10:51:53;8.10;;;7.23;;
11098;SDS011;12223;42.650;23.364;2023-02-01T10:54:31;9.30;;;8.10;;
11098;SDS011;12223;42.650;23.364;2023-02-01T10:56:59;8.30;;;7.67;;
11098;SDS011;12223;42.650;23.364;2023-02-01T10:59:27;8.63;;;7.93;;
11098;SDS011;12223;42.650;23.364;2023-02-01T11:02:26;8.63;;;7.97;;
11098;SDS011;12223;42.650;23.364;2023-02-01T11:04:58;8.93;;;8.23;;
11098;SDS011;12223;42.650;23.364;2023-02-01T11:07:26;9.00;;;8.40;;
11098;SDS011;12223;42.650;23.364;2023-02-01T11:09:55;8.20;;;7.50;;
11098;SDS011;12223;42.650;23.364;2023-02-01T11:12:30;8.20;;;7.60;;
11098;SDS011;12223;42.650;23.364;2023-02-01T11:14:59;8.33;;;7.70;;
11098;SDS011;12223;42.650;23.364;2023-02-01T11:17:33;10.50;;;7.43;;
11098;SDS011;12223;42.650;23.364;2023-02-01T11:20:03;8.60;;;7.90;;
11098;SDS011;12223;42.650;23.364;2023-02-01T11:22:38;7.77;;;7.17;;
11098;SDS011;12223;42.650;23.364;2023-02-01T11:25:13;8.10;;;7.50;;
11098;SDS011;12223;42.650;23.364;2023-02-01T11:27:43;7.80;;;7.30;;
11098;SDS011;12223;42.650;23.364;2023-02-01T11:30:13;9.23;;;8.33;;
11098;SDS011;12223;42.650;23.364;2023-02-01T11:32:43;7.87;;;7.17;;
11098;SDS011;12223;42.650;23.364;2023-02-01T11:35:13;8.17;;;7.50;;
11098;SDS011;12223;42.650;23.364;2023-02-01T11:37:44;7.60;;;7.00;;
11098;SDS011;12223;42.650;23.364;2023-02-01T11:40:26;8.10;;;7.30;;
11098;SDS011;12223;42.650;23.364;2023-02-01T11:42:55;8.27;;;7.67;;
11098;SDS011;12223;42.650;23.364;2023-02-01T11:45:27;8.70;;;7.93;;
11098;SDS011;12223;42.650;23.364;2023-02-01T11:47:56;9.03;;;8.23;;
11098;SDS011;12223;42.650;23.364;2023-02-01T11:50:28;10.30;;;9.43;;
11098;SDS011;12223;42.650;23.364;2023-02-01T11:53:07;11.03;;;10.33;;
11098;SDS011;12223;42.650;23.364;2023-02-01T11:55:56;10.80;;;10.20;;
11098;SDS011;12223;42.650;23.364;2023-02-01T11:58:47;9.20;;;8.60;;
11098;SDS011;12223;42.650;23.364;2023-02-01T12:01:28;8.93;;;8.23;;
11098;SDS011;12223;42.650;23.364;2023-02-01T12:07:05;10.30;;;9.37;;
11098;SDS011;12223;42.650;23.364;2023-02-01T12:12:33;9.47;;;8.87;;
11098;SDS011;12223;42.650;23.364;2023-02-01T12:15:14;8.70;;;8.00;;
11098;SDS011;12223;42.650;23.364;2023-02-01T12:18:01;8.70;;;8.00;;
11098;SDS011;12223;42.650;23.364;2023-02-01T12:21:04;8.87;;;8.37;;
11098;SDS011;12223;42.650;23.364;2023-02-01T12:23:46;9.40;;;8.60;;
11098;SDS011;12223;42.650;23.364;2023-02-01T12:26:35;11.77;;;7.87;;
11098;SDS011;12223;42.650;23.364;2023-02-01T12:29:13;9.23;;;8.70;;
11098;SDS011;12223;42.650;23.364;2023-02-01T12:35:02;8.13;;;7.50;;
11098;SDS011;12223;42.650;23.364;2023-02-01T12:37:46;9.53;;;8.73;;
11098;SDS011;12223;42.650;23.364;2023-02-01T12:43:25;9.00;;;7.03;;
11098;SDS011;12223;42.650;23.364;2023-02-01T12:46:02;9.90;;;9.30;;
11098;SDS011;12223;42.650;23.364;2023-02-01T12:48:33;8.23;;;7.47;;
11098;SDS011;12223;42.650;23.364;2023-02-01T12:51:05;10.53;;;9.80;;
11098;SDS011;12223;42.650;23.364;2023-02-01T12:53:41;6.40;;;6.00;;
11098;SDS011;12223;42.650;23.364;2023-02-01T12:56:15;5.97;;;5.57;;
11098;SDS011;12223;42.650;23.364;2023-02-01T12:58:48;7.10;;;6.60;;
11098;SDS011;12223;42.650;23.364;2023-02-01T13:01:19;7.30;;;6.67;;
11098;SDS011;12223;42.650;23.364;2023-02-01T13:03:52;6.50;;;6.10;;
11098;SDS011;12223;42.650;23.364;2023-02-01T13:06:23;6.60;;;6.00;;
11098;SDS011;12223;42.650;23.364;2023-02-01T13:08:57;7.67;;;6.97;;
11098;SDS011;12223;42.650;23.364;2023-02-01T13:11:31;6.10;;;5.70;;
11098;SDS011;12223;42.650;23.364;2023-02-01T13:14:03;7.13;;;6.30;;
11098;SDS011;12223;42.650;23.364;2023-02-01T13:16:37;9.07;;;6.20;;
11098;SDS011;12223;42.650;23.364;2023-02-01T13:19:10;6.97;;;6.33;;
11098;SDS011;12223;42.650;23.364;2023-02-01T13:21:45;6.03;;;5.63;;
11098;SDS011;12223;42.650;23.364;2023-02-01T13:24:20;6.70;;;6.30;;
11098;SDS011;12223;42.650;23.364;2023-02-01T13:26:54;8.33;;;7.63;;
11098;SDS011;12223;42.650;23.364;2023-02-01T13:29:22;8.00;;;7.60;;
11098;SDS011;12223;42.650;23.364;2023-02-01T13:32:04;11.60;;;10.87;;
11098;SDS011;12223;42.650;23.364;2023-02-01T13:37:55;7.70;;;7.10;;
11098;SDS011;12223;42.650;23.364;2023-02-01T13:40:36;6.20;;;5.80;;
11098;SDS011;12223;42.650;23.364;2023-02-01T13:43:23;8.50;;;7.70;;
11098;SDS011;12223;42.650;23.364;2023-02-01T13:45:54;15.87;;;14.43;;
11098;SDS011;12223;42.650;23.364;2023-02-01T13:48:24;8.47;;;7.87;;
11098;SDS011;12223;42.650;23.364;2023-02-01T13:50:56;9.53;;;8.67;;
11098;SDS011;12223;42.650;23.364;2023-02-01T13:53:28;7.67;;;7.17;;
11098;SDS011;12223;42.650;23.364;2023-02-01T13:55:58;9.97;;;9.30;;
11098;SDS011;12223;42.650;23.364;2023-02-01T13:58:32;7.87;;;7.37;;
11098;SDS011;12223;42.650;23.364;2023-02-01T14:07:20;8.40;;;7.93;;
11098;SDS011;12223;42.650;23.364;2023-02-01T14:09:48;8.87;;;8.20;;
11098;SDS011;12223;42.650;23.364;2023-02-01T14:15:25;6.47;;;5.90;;
11098;SDS011;12223;42.650;23.364;2023-02-01T14:17:53;6.50;;;6.00;;
11098;SDS011;12223;42.650;23.364;2023-02-01T14:26:08;9.97;;;7.60;;
11098;SDS011;12223;42.650;23.364;2023-02-01T14:28:53;7.60;;;6.90;;
11098;SDS011;12223;42.650;23.364;2023-02-01T14:31:33;12.70;;;7.30;;
11098;SDS011;12223;42.650;23.364;2023-02-01T14:34:05;7.30;;;6.27;;
11098;SDS011;12223;42.650;23.364;2023-02-01T14:36:57;9.37;;;6.77;;
11098;SDS011;12223;42.650;23.364;2023-02-01T14:39:31;6.73;;;6.00;;
11098;SDS011;12223;42.650;23.364;2023-02-01T14:42:04;6.27;;;5.77;;
11098;SDS011;12223;42.650;23.364;2023-02-01T14:44:42;7.07;;;6.47;;
11098;SDS011;12223;42.650;23.364;2023-02-01T14:53:04;9.43;;;7.30;;
11098;SDS011;12223;42.650;23.364;2023-02-01T14:55:42;9.23;;;8.40;;
11098;SDS011;12223;42.650;23.364;2023-02-01T14:58:15;9.77;;;6.83;;
11098;SDS011;12223;42.650;23.364;2023-02-01T15:00:47;8.03;;;7.30;;
11098;SDS011;12223;42.650;23.364;2023-02-01T15:03:21;11.87;;;8.07;;
11098;SDS011;12223;42.650;23.364;2023-02-01T15:05:57;7.97;;;6.63;;
11098;SDS011;12223;42.650;23.364;2023-02-01T15:08:33;7.30;;;6.73;;
11098;SDS011;12223;42.650;23.364;2023-02-01T15:11:02;8.13;;;7.10;;
11098;SDS011;12223;42.650;23.364;2023-02-01T15:13:35;7.67;;;7.07;;
11098;SDS011;12223;42.650;23.364;2023-02-01T15:16:02;8.57;;;7.87;;
11098;SDS011;12223;42.650;23.364;2023-02-01T15:18:31;9.13;;;8.43;;
11098;SDS011;12223;42.650;23.364;2023-02-01T15:20:59;8.37;;;7.57;;
11098;SDS011;12223;42.650;23.364;2023-02-01T15:23:27;7.10;;;6.50;;
11098;SDS011;12223;42.650;23.364;2023-02-01T15:25:57;7.20;;;6.33;;
11098;SDS011;12223;42.650;23.364;2023-02-01T15:28:25;9.23;;;6.67;;
11098;SDS011;12223;42.650;23.364;2023-02-01T15:30:53;6.90;;;6.30;;
11098;SDS011;12223;42.650;23.364;2023-02-01T15:33:24;10.93;;;6.93;;
11098;SDS011;12223;42.650;23.364;2023-02-01T15:35:52;6.33;;;5.93;;